sensor_id;sensor_type;location;lat;lon;timestamp;P1;durP1;ratioP1;P2;durP2;ratioP2
66987;SDS011;53908;51.464;-2.588;2022-07-22T00:02:08;10.13;;;3.42;;
66987;SDS011;53908;51.464;-2.588;2022-07-22T00:04:34;16.50;;;4.03;;
66987;SDS011;53908;51.464;-2.588;2022-07-22T00:06:59;11.32;;;3.03;;
66987;SDS011;53908;51.464;-2.588;2022-07-22T00:09:25;8.48;;;2.88;;
66987;SDS011;53908;51.464;-2.588;2022-07-22T00:11:50;10.85;;;2.83;;
66987;SDS011;53908;51.464;-2.588;2022-07-22T00:14:16;6.47;;;3.13;;
66987;SDS011;53908;51.464;-2.588;2022-07-22T00:16:41;12.07;;;2.90;;
66987;SDS011;53908;51.464;-2.588;2022-07-22T00:19:07;8.82;;;2.33;;
66987;SDS011;53908;51.464;-2.588;2022-07-22T00:21:32;7.60;;;2.53;;
66987;SDS011;53908;51.464;-2.588;2022-07-22T00:23:58;8.20;;;3.17;;
66987;SDS011;53908;51.464;-2.588;2022-07-22T00:26:23;11.75;;;3.22;;
66987;SDS011;53908;51.464;-2.588;2022-07-22T00:28:49;8.00;;;2.47;;
66987;SDS011;53908;51.464;-2.588;2022-07-22T00:31:14;8.82;;;2.45;;
66987;SDS011;53908;51.464;-2.588;2022-07-22T00:33:40;8.90;;;2.65;;
66987;SDS011;53908;51.464;-2.588;2022-07-22T00:36:05;10.68;;;2.95;;
66987;SDS011;53908;51.464;-2.588;2022-07-22T00:38:31;7.75;;;2.65;;
66987;SDS011;53908;51.464;-2.588;2022-07-22T00:40:57;12.85;;;2.70;;
66987;SDS011;53908;51.464;-2.588;2022-07-22T00:43:22;10.60;;;2.53;;
66987;SDS011;53908;51.464;-2.588;2022-07-22T00:45:48;8.07;;;2.50;;
66987;SDS011;53908;51.464;-2.588;2022-07-22T01:01:19;13.05;;;2.70;;
66987;SDS011;53908;51.464;-2.588;2022-07-22T01:03:44;5.38;;;2.40;;
66987;SDS011;53908;51.464;-2.588;2022-07-22T01:06:10;14.57;;;3.75;;
66987;SDS011;53908;51.464;-2.588;2022-07-22T01:08:36;7.72;;;3.15;;
66987;SDS011;53908;51.464;-2.588;2022-07-22T01:11:09;8.95;;;3.03;;
66987;SDS011;53908;51.464;-2.588;2022-07-22T01:13:41;9.00;;;3.03;;
66987;SDS011;53908;51.464;-2.588;2022-07-22T01:16:07;10.80;;;3.10;;
66987;SDS011;53908;51.464;-2.588;2022-07-22T01:18:34;8.25;;;3.40;;
66987;SDS011;53908;51.464;-2.588;2022-07-22T01:21:00;7.90;;;3.42;;
66987;SDS011;53908;51.464;-2.588;2022-07-22T01:23:26;13.07;;;3.50;;
66987;SDS011;53908;51.464;-2.588;2022-07-22T01:25:51;10.18;;;3.60;;
66987;SDS011;53908;51.464;-2.588;2022-07-22T01:28:17;8.00;;;4.10;;
66987;SDS011;53908;51.464;-2.588;2022-07-22T01:30:42;13.40;;;4.22;;
66987;SDS011;53908;51.464;-2.588;2022-07-22T01:33:07;8.73;;;4.50;;
66987;SDS011;53908;51.464;-2.588;2022-07-22T01:35:33;12.15;;;4.43;;
66987;SDS011;53908;51.464;-2.588;2022-07-22T01:37:58;7.05;;;3.67;;
66987;SDS011;53908;51.464;-2.588;2022-07-22T01:40:24;7.45;;;4.57;;
66987;SDS011;53908;51.464;-2.588;2022-07-22T01:42:49;8.18;;;4.30;;
66987;SDS011;53908;51.464;-2.588;2022-07-22T01:45:15;8.13;;;4.40;;
66987;SDS011;53908;51.464;-2.588;2022-07-22T01:47:40;6.50;;;4.22;;
66987;SDS011;53908;51.464;-2.588;2022-07-22T01:50:06;8.90;;;4.40;;
66987;SDS011;53908;51.464;-2.588;2022-07-22T01:52:33;10.00;;;4.60;;
66987;SDS011;53908;51.464;-2.588;2022-07-22T01:54:59;10.10;;;4.03;;
66987;SDS011;53908;51.464;-2.588;2022-07-22T01:57:24;8.18;;;4.45;;
66987;SDS011;53908;51.464;-2.588;2022-07-22T01:59:49;7.20;;;4.63;;
66987;SDS011;53908;51.464;-2.588;2022-07-22T02:02:15;8.45;;;4.40;;
66987;SDS011;53908;51.464;-2.588;2022-07-22T02:04:40;8.43;;;4.50;;
66987;SDS011;53908;51.464;-2.588;2022-07-22T02:07:06;6.47;;;3.95;;
66987;SDS011;53908;51.464;-2.588;2022-07-22T02:09:31;9.65;;;4.53;;
66987;SDS011;53908;51.464;-2.588;2022-07-22T02:11:57;10.00;;;4.93;;
66987;SDS011;53908;51.464;-2.588;2022-07-22T02:14:22;9.18;;;4.38;;
66987;SDS011;53908;51.464;-2.588;2022-07-22T02:16:48;7.95;;;4.47;;
66987;SDS011;53908;51.464;-2.588;2022-07-22T02:19:13;9.98;;;4.80;;
66987;SDS011;53908;51.464;-2.588;2022-07-22T02:21:38;10.85;;;4.10;;
66987;SDS011;53908;51.464;-2.588;2022-07-22T02:24:04;8.52;;;4.53;;
66987;SDS011;53908;51.464;-2.588;2022-07-22T02:26:30;10.38;;;4.45;;
66987;SDS011;53908;51.464;-2.588;2022-07-22T02:28:55;11.02;;;4.60;;
66987;SDS011;53908;51.464;-2.588;2022-07-22T02:31:21;5.65;;;3.90;;
66987;SDS011;53908;51.464;-2.588;2022-07-22T02:33:46;8.13;;;4.20;;
66987;SDS011;53908;51.464;-2.588;2022-07-22T02:36:12;13.35;;;4.72;;
66987;SDS011;53908;51.464;-2.588;2022-07-22T02:38:37;7.13;;;4.40;;
66987;SDS011;53908;51.464;-2.588;2022-07-22T02:41:03;7.53;;;4.10;;
66987;SDS011;53908;51.464;-2.588;2022-07-22T02:43:28;8.63;;;4.05;;
66987;SDS011;53908;51.464;-2.588;2022-07-22T02:45:54;12.80;;;4.30;;
66987;SDS011;53908;51.464;-2.588;2022-07-22T02:48:19;7.20;;;3.83;;
66987;SDS011;53908;51.464;-2.588;2022-07-22T02:50:48;10.10;;;4.53;;
66987;SDS011;53908;51.464;-2.588;2022-07-22T02:53:14;7.30;;;3.65;;
66987;SDS011;53908;51.464;-2.588;2022-07-22T02:55:39;11.93;;;4.20;;
66987;SDS011;53908;51.464;-2.588;2022-07-22T02:58:05;5.95;;;4.07;;
66987;SDS011;53908;51.464;-2.588;2022-07-22T03:00:31;8.18;;;4.28;;
66987;SDS011;53908;51.464;-2.588;2022-07-22T03:02:57;8.45;;;4.30;;
66987;SDS011;53908;51.464;-2.588;2022-07-22T03:05:22;8.27;;;4.55;;
66987;SDS011;53908;51.464;-2.588;2022-07-22T03:07:48;11.27;;;4.20;;
66987;SDS011;53908;51.464;-2.588;2022-07-22T03:10:13;9.70;;;3.95;;
66987;SDS011;53908;51.464;-2.588;2022-07-22T03:12:39;8.93;;;4.07;;
66987;SDS011;53908;51.464;-2.588;2022-07-22T03:15:04;12.40;;;4.50;;
66987;SDS011;53908;51.464;-2.588;2022-07-22T03:17:33;8.82;;;4.13;;
66987;SDS011;53908;51.464;-2.588;2022-07-22T03:20:01;9.18;;;4.05;;
66987;SDS011;53908;51.464;-2.588;2022-07-22T03:22:30;11.98;;;3.90;;
66987;SDS011;53908;51.464;-2.588;2022-07-22T03:24:56;8.48;;;3.67;;
66987;SDS011;53908;51.464;-2.588;2022-07-22T03:27:21;7.07;;;3.78;;
66987;SDS011;53908;51.464;-2.588;2022-07-22T03:29:46;11.30;;;3.80;;
66987;SDS011;53908;51.464;-2.588;2022-07-22T03:32:12;10.88;;;4.30;;
66987;SDS011;53908;51.464;-2.588;2022-07-22T03:34:39;10.43;;;4.03;;
66987;SDS011;53908;51.464;-2.588;2022-07-22T03:37:04;11.98;;;4.00;;
66987;SDS011;53908;51.464;-2.588;2022-07-22T03:39:30;9.73;;;3.80;;
66987;SDS011;53908;51.464;-2.588;2022-07-22T03:41:55;12.13;;;3.92;;
66987;SDS011;53908;51.464;-2.588;2022-07-22T03:44:21;12.68;;;3.90;;
66987;SDS011;53908;51.464;-2.588;2022-07-22T03:46:47;10.35;;;3.95;;
66987;SDS011;53908;51.464;-2.588;2022-07-22T03:49:12;10.05;;;3.92;;
66987;SDS011;53908;51.464;-2.588;2022-07-22T03:51:38;8.85;;;3.88;;
66987;SDS011;53908;51.464;-2.588;2022-07-22T03:54:03;12.73;;;3.63;;
66987;SDS011;53908;51.464;-2.588;2022-07-22T03:56:29;11.77;;;3.53;;
66987;SDS011;53908;51.464;-2.588;2022-07-22T03:58:54;8.13;;;3.42;;
66987;SDS011;53908;51.464;-2.588;2022-07-22T04:01:19;14.63;;;4.18;;
66987;SDS011;53908;51.464;-2.588;2022-07-22T04:03:45;7.78;;;3.35;;
66987;SDS011;53908;51.464;-2.588;2022-07-22T04:06:10;13.50;;;3.95;;
66987;SDS011;53908;51.464;-2.588;2022-07-22T04:08:36;9.43;;;3.60;;
66987;SDS011;53908;51.464;-2.588;2022-07-22T04:11:01;12.23;;;4.22;;
66987;SDS011;53908;51.464;-2.588;2022-07-22T04:13:27;13.80;;;3.67;;
66987;SDS011;53908;51.464;-2.588;2022-07-22T04:15:52;11.98;;;3.40;;
66987;SDS011;53908;51.464;-2.588;2022-07-22T04:18:17;12.77;;;3.60;;
66987;SDS011;53908;51.464;-2.588;2022-07-22T04:20:43;8.77;;;3.45;;
66987;SDS011;53908;51.464;-2.588;2022-07-22T04:23:08;11.00;;;3.60;;
66987;SDS011;53908;51.464;-2.588;2022-07-22T04:25:34;9.52;;;3.60;;
66987;SDS011;53908;51.464;-2.588;2022-07-22T04:27:59;9.27;;;3.08;;
66987;SDS011;53908;51.464;-2.588;2022-07-22T04:30:25;9.63;;;3.47;;
66987;SDS011;53908;51.464;-2.588;2022-07-22T04:32:50;12.05;;;3.65;;
66987;SDS011;53908;51.464;-2.588;2022-07-22T04:35:16;12.00;;;3.30;;
66987;SDS011;53908;51.464;-2.588;2022-07-22T04:37:41;16.70;;;3.80;;
66987;SDS011;53908;51.464;-2.588;2022-07-22T04:40:07;17.45;;;4.70;;
66987;SDS011;53908;51.464;-2.588;2022-07-22T04:42:33;13.73;;;3.88;;
66987;SDS011;53908;51.464;-2.588;2022-07-22T04:44:58;10.55;;;3.40;;
66987;SDS011;53908;51.464;-2.588;2022-07-22T04:47:24;12.10;;;3.55;;
66987;SDS011;53908;51.464;-2.588;2022-07-22T04:49:49;9.18;;;3.30;;
66987;SDS011;53908;51.464;-2.588;2022-07-22T04:52:14;15.50;;;3.25;;
66987;SDS011;53908;51.464;-2.588;2022-07-22T04:54:40;11.85;;;3.38;;
66987;SDS011;53908;51.464;-2.588;2022-07-22T04:57:05;9.90;;;3.10;;
66987;SDS011;53908;51.464;-2.588;2022-07-22T04:59:31;9.38;;;3.08;;
66987;SDS011;53908;51.464;-2.588;2022-07-22T05:01:56;14.60;;;3.72;;
66987;SDS011;53908;51.464;-2.588;2022-07-22T05:04:21;12.85;;;3.25;;
66987;SDS011;53908;51.464;-2.588;2022-07-22T05:06:47;12.52;;;3.25;;
66987;SDS011;53908;51.464;-2.588;2022-07-22T05:09:12;13.68;;;3.50;;
66987;SDS011;53908;51.464;-2.588;2022-07-22T05:11:38;11.27;;;3.22;;
66987;SDS011;53908;51.464;-2.588;2022-07-22T05:14:04;11.60;;;2.92;;
66987;SDS011;53908;51.464;-2.588;2022-07-22T05:16:29;11.63;;;3.00;;
66987;SDS011;53908;51.464;-2.588;2022-07-22T05:18:55;12.48;;;4.03;;
66987;SDS011;53908;51.464;-2.588;2022-07-22T05:21:20;13.85;;;3.47;;
66987;SDS011;53908;51.464;-2.588;2022-07-22T05:23:46;8.73;;;3.08;;
66987;SDS011;53908;51.464;-2.588;2022-07-22T05:26:11;12.52;;;3.10;;
66987;SDS011;53908;51.464;-2.588;2022-07-22T05:28:36;9.88;;;2.70;;
66987;SDS011;53908;51.464;-2.588;2022-07-22T05:31:02;13.13;;;2.88;;
66987;SDS011;53908;51.464;-2.588;2022-07-22T05:33:27;10.23;;;2.83;;
66987;SDS011;53908;51.464;-2.588;2022-07-22T05:35:53;13.75;;;3.00;;
66987;SDS011;53908;51.464;-2.588;2022-07-22T05:38:18;11.55;;;3.20;;
66987;SDS011;53908;51.464;-2.588;2022-07-22T05:40:44;9.45;;;2.70;;
66987;SDS011;53908;51.464;-2.588;2022-07-22T05:43:09;13.00;;;3.22;;
66987;SDS011;53908;51.464;-2.588;2022-07-22T05:45:35;11.82;;;2.90;;
66987;SDS011;53908;51.464;-2.588;2022-07-22T05:48:00;12.38;;;2.67;;
66987;SDS011;53908;51.464;-2.588;2022-07-22T05:50:26;9.18;;;2.40;;
66987;SDS011;53908;51.464;-2.588;2022-07-22T05:52:52;12.00;;;3.20;;
66987;SDS011;53908;51.464;-2.588;2022-07-22T05:55:17;10.82;;;2.80;;
66987;SDS011;53908;51.464;-2.588;2022-07-22T05:57:43;14.68;;;2.78;;
66987;SDS011;53908;51.464;-2.588;2022-07-22T06:00:08;14.60;;;2.75;;
66987;SDS011;53908;51.464;-2.588;2022-07-22T06:02:34;20.05;;;2.80;;
66987;SDS011;53908;51.464;-2.588;2022-07-22T06:05:00;11.15;;;2.70;;
66987;SDS011;53908;51.464;-2.588;2022-07-22T06:07:25;8.82;;;2.70;;
66987;SDS011;53908;51.464;-2.588;2022-07-22T06:09:51;5.32;;;2.30;;
66987;SDS011;53908;51.464;-2.588;2022-07-22T06:12:17;14.00;;;2.83;;
66987;SDS011;53908;51.464;-2.588;2022-07-22T06:14:43;13.73;;;2.80;;
66987;SDS011;53908;51.464;-2.588;2022-07-22T06:17:09;8.50;;;2.50;;
66987;SDS011;53908;51.464;-2.588;2022-07-22T06:19:34;9.50;;;2.50;;
66987;SDS011;53908;51.464;-2.588;2022-07-22T06:22:00;13.77;;;2.75;;
66987;SDS011;53908;51.464;-2.588;2022-07-22T06:24:25;10.68;;;2.83;;
66987;SDS011;53908;51.464;-2.588;2022-07-22T06:26:51;6.97;;;2.40;;
66987;SDS011;53908;51.464;-2.588;2022-07-22T06:29:16;12.00;;;2.95;;
66987;SDS011;53908;51.464;-2.588;2022-07-22T06:31:42;12.65;;;2.55;;
66987;SDS011;53908;51.464;-2.588;2022-07-22T06:34:07;14.98;;;2.50;;
66987;SDS011;53908;51.464;-2.588;2022-07-22T06:36:33;11.05;;;2.33;;
66987;SDS011;53908;51.464;-2.588;2022-07-22T06:38:58;15.63;;;2.70;;
66987;SDS011;53908;51.464;-2.588;2022-07-22T06:41:24;13.55;;;2.63;;
66987;SDS011;53908;51.464;-2.588;2022-07-22T06:43:50;10.05;;;2.40;;
66987;SDS011;53908;51.464;-2.588;2022-07-22T06:46:15;8.35;;;2.13;;
66987;SDS011;53908;51.464;-2.588;2022-07-22T06:48:41;8.15;;;2.05;;
66987;SDS011;53908;51.464;-2.588;2022-07-22T06:51:06;7.15;;;2.28;;
66987;SDS011;53908;51.464;-2.588;2022-07-22T06:53:32;9.13;;;2.42;;
66987;SDS011;53908;51.464;-2.588;2022-07-22T06:55:57;9.52;;;2.08;;
66987;SDS011;53908;51.464;-2.588;2022-07-22T06:58:23;13.07;;;2.45;;
66987;SDS011;53908;51.464;-2.588;2022-07-22T07:00:48;11.80;;;2.80;;
66987;SDS011;53908;51.464;-2.588;2022-07-22T07:03:14;9.07;;;2.20;;
66987;SDS011;53908;51.464;-2.588;2022-07-22T07:05:39;10.13;;;2.25;;
66987;SDS011;53908;51.464;-2.588;2022-07-22T07:08:05;10.00;;;2.55;;
66987;SDS011;53908;51.464;-2.588;2022-07-22T07:10:30;8.48;;;2.03;;
66987;SDS011;53908;51.464;-2.588;2022-07-22T07:12:56;11.00;;;1.85;;
66987;SDS011;53908;51.464;-2.588;2022-07-22T07:15:23;5.88;;;1.73;;
66987;SDS011;53908;51.464;-2.588;2022-07-22T07:17:49;6.82;;;1.80;;
66987;SDS011;53908;51.464;-2.588;2022-07-22T07:20:15;8.98;;;2.40;;
66987;SDS011;53908;51.464;-2.588;2022-07-22T07:22:40;9.25;;;2.13;;
66987;SDS011;53908;51.464;-2.588;2022-07-22T07:25:07;9.20;;;1.83;;
66987;SDS011;53908;51.464;-2.588;2022-07-22T07:27:33;12.93;;;1.83;;
66987;SDS011;53908;51.464;-2.588;2022-07-22T07:29:59;10.90;;;2.45;;
66987;SDS011;53908;51.464;-2.588;2022-07-22T07:32:24;11.68;;;2.28;;
66987;SDS011;53908;51.464;-2.588;2022-07-22T07:34:50;8.95;;;1.90;;
66987;SDS011;53908;51.464;-2.588;2022-07-22T07:37:15;8.98;;;2.20;;
66987;SDS011;53908;51.464;-2.588;2022-07-22T07:39:41;11.52;;;2.13;;
66987;SDS011;53908;51.464;-2.588;2022-07-22T07:42:06;6.20;;;1.90;;
66987;SDS011;53908;51.464;-2.588;2022-07-22T07:44:32;6.80;;;2.10;;
66987;SDS011;53908;51.464;-2.588;2022-07-22T07:46:57;7.68;;;2.55;;
66987;SDS011;53908;51.464;-2.588;2022-07-22T07:49:23;12.05;;;2.80;;
66987;SDS011;53908;51.464;-2.588;2022-07-22T07:51:48;7.18;;;2.10;;
66987;SDS011;53908;51.464;-2.588;2022-07-22T07:54:14;9.95;;;2.08;;
66987;SDS011;53908;51.464;-2.588;2022-07-22T07:56:39;10.18;;;2.38;;
66987;SDS011;53908;51.464;-2.588;2022-07-22T07:59:05;8.70;;;2.00;;
66987;SDS011;53908;51.464;-2.588;2022-07-22T08:01:30;8.13;;;2.22;;
66987;SDS011;53908;51.464;-2.588;2022-07-22T08:03:56;8.15;;;1.90;;
66987;SDS011;53908;51.464;-2.588;2022-07-22T08:06:22;9.70;;;3.38;;
66987;SDS011;53908;51.464;-2.588;2022-07-22T08:08:47;9.27;;;2.40;;
66987;SDS011;53908;51.464;-2.588;2022-07-22T08:11:13;9.20;;;2.20;;
66987;SDS011;53908;51.464;-2.588;2022-07-22T08:13:38;13.27;;;2.63;;
66987;SDS011;53908;51.464;-2.588;2022-07-22T08:16:04;13.02;;;2.40;;
66987;SDS011;53908;51.464;-2.588;2022-07-22T08:18:30;10.52;;;2.33;;
66987;SDS011;53908;51.464;-2.588;2022-07-22T08:20:55;9.77;;;2.22;;
66987;SDS011;53908;51.464;-2.588;2022-07-22T08:23:21;5.95;;;1.90;;
66987;SDS011;53908;51.464;-2.588;2022-07-22T08:25:47;11.10;;;2.00;;
66987;SDS011;53908;51.464;-2.588;2022-07-22T08:28:12;8.32;;;1.90;;
66987;SDS011;53908;51.464;-2.588;2022-07-22T08:30:38;9.50;;;2.22;;
66987;SDS011;53908;51.464;-2.588;2022-07-22T08:33:05;12.82;;;2.65;;
66987;SDS011;53908;51.464;-2.588;2022-07-22T08:35:30;10.52;;;2.30;;
66987;SDS011;53908;51.464;-2.588;2022-07-22T08:37:56;6.95;;;1.90;;
66987;SDS011;53908;51.464;-2.588;2022-07-22T08:40:21;11.90;;;2.30;;
66987;SDS011;53908;51.464;-2.588;2022-07-22T08:42:47;7.05;;;2.30;;
66987;SDS011;53908;51.464;-2.588;2022-07-22T08:45:14;14.13;;;2.70;;
66987;SDS011;53908;51.464;-2.588;2022-07-22T08:47:40;13.43;;;2.50;;
66987;SDS011;53908;51.464;-2.588;2022-07-22T08:50:05;10.27;;;3.35;;
66987;SDS011;53908;51.464;-2.588;2022-07-22T08:52:31;10.77;;;2.60;;
66987;SDS011;53908;51.464;-2.588;2022-07-22T08:54:56;10.88;;;2.50;;
66987;SDS011;53908;51.464;-2.588;2022-07-22T08:57:22;9.63;;;2.40;;
66987;SDS011;53908;51.464;-2.588;2022-07-22T08:59:48;8.75;;;2.80;;
66987;SDS011;53908;51.464;-2.588;2022-07-22T09:02:18;11.70;;;2.78;;
66987;SDS011;53908;51.464;-2.588;2022-07-22T09:10:13;7.60;;;2.50;;
66987;SDS011;53908;51.464;-2.588;2022-07-22T09:12:53;5.28;;;2.17;;
66987;SDS011;53908;51.464;-2.588;2022-07-22T09:15:35;12.90;;;2.60;;
66987;SDS011;53908;51.464;-2.588;2022-07-22T09:18:06;7.10;;;2.53;;
66987;SDS011;53908;51.464;-2.588;2022-07-22T09:20:36;11.52;;;3.25;;
66987;SDS011;53908;51.464;-2.588;2022-07-22T09:23:09;9.38;;;2.67;;
66987;SDS011;53908;51.464;-2.588;2022-07-22T09:25:39;10.25;;;3.00;;
66987;SDS011;53908;51.464;-2.588;2022-07-22T09:30:31;12.73;;;2.70;;
66987;SDS011;53908;51.464;-2.588;2022-07-22T09:32:58;12.05;;;2.80;;
66987;SDS011;53908;51.464;-2.588;2022-07-22T09:35:23;8.35;;;2.90;;
66987;SDS011;53908;51.464;-2.588;2022-07-22T09:37:54;10.07;;;3.08;;
66987;SDS011;53908;51.464;-2.588;2022-07-22T09:40:22;9.73;;;2.45;;
66987;SDS011;53908;51.464;-2.588;2022-07-22T09:43:01;16.33;;;3.22;;
66987;SDS011;53908;51.464;-2.588;2022-07-22T09:45:29;12.48;;;2.97;;
66987;SDS011;53908;51.464;-2.588;2022-07-22T09:47:56;14.20;;;2.85;;
66987;SDS011;53908;51.464;-2.588;2022-07-22T09:50:24;11.10;;;2.60;;
66987;SDS011;53908;51.464;-2.588;2022-07-22T09:52:51;13.52;;;3.13;;
66987;SDS011;53908;51.464;-2.588;2022-07-22T09:55:20;10.77;;;2.88;;
66987;SDS011;53908;51.464;-2.588;2022-07-22T09:57:47;10.90;;;2.90;;
66987;SDS011;53908;51.464;-2.588;2022-07-22T10:00:14;10.02;;;3.08;;
66987;SDS011;53908;51.464;-2.588;2022-07-22T10:02:56;12.55;;;2.97;;
66987;SDS011;53908;51.464;-2.588;2022-07-22T10:05:37;12.63;;;3.25;;
66987;SDS011;53908;51.464;-2.588;2022-07-22T10:08:04;13.75;;;3.20;;
66987;SDS011;53908;51.464;-2.588;2022-07-22T10:10:31;12.30;;;3.28;;
66987;SDS011;53908;51.464;-2.588;2022-07-22T10:12:58;9.90;;;2.65;;
66987;SDS011;53908;51.464;-2.588;2022-07-22T10:15:25;9.90;;;2.85;;
66987;SDS011;53908;51.464;-2.588;2022-07-22T10:17:55;10.10;;;2.67;;
66987;SDS011;53908;51.464;-2.588;2022-07-22T10:20:22;11.90;;;2.95;;
66987;SDS011;53908;51.464;-2.588;2022-07-22T10:22:52;9.93;;;2.72;;
66987;SDS011;53908;51.464;-2.588;2022-07-22T10:25:19;9.50;;;2.60;;
66987;SDS011;53908;51.464;-2.588;2022-07-22T10:30:15;7.25;;;2.95;;
66987;SDS011;53908;51.464;-2.588;2022-07-22T10:32:42;11.38;;;3.20;;
66987;SDS011;53908;51.464;-2.588;2022-07-22T10:40:19;8.15;;;2.97;;
66987;SDS011;53908;51.464;-2.588;2022-07-22T10:45:26;10.15;;;3.03;;
66987;SDS011;53908;51.464;-2.588;2022-07-22T10:47:56;10.55;;;3.47;;
66987;SDS011;53908;51.464;-2.588;2022-07-22T10:53:01;12.02;;;3.63;;
66987;SDS011;53908;51.464;-2.588;2022-07-22T10:55:27;11.75;;;3.42;;
66987;SDS011;53908;51.464;-2.588;2022-07-22T10:57:52;12.98;;;3.38;;
66987;SDS011;53908;51.464;-2.588;2022-07-22T11:00:18;15.65;;;3.50;;
66987;SDS011;53908;51.464;-2.588;2022-07-22T11:02:44;8.18;;;3.17;;
66987;SDS011;53908;51.464;-2.588;2022-07-22T11:05:10;7.18;;;3.38;;
66987;SDS011;53908;51.464;-2.588;2022-07-22T11:07:45;14.00;;;3.70;;
66987;SDS011;53908;51.464;-2.588;2022-07-22T11:10:16;9.40;;;3.35;;
66987;SDS011;53908;51.464;-2.588;2022-07-22T11:12:43;13.75;;;3.58;;
66987;SDS011;53908;51.464;-2.588;2022-07-22T11:15:09;10.93;;;2.90;;
66987;SDS011;53908;51.464;-2.588;2022-07-22T11:17:35;9.07;;;3.22;;
66987;SDS011;53908;51.464;-2.588;2022-07-22T11:20:05;13.07;;;3.83;;
66987;SDS011;53908;51.464;-2.588;2022-07-22T11:22:32;8.55;;;3.33;;
66987;SDS011;53908;51.464;-2.588;2022-07-22T11:24:59;13.95;;;3.80;;
66987;SDS011;53908;51.464;-2.588;2022-07-22T11:27:26;17.63;;;4.13;;
66987;SDS011;53908;51.464;-2.588;2022-07-22T11:29:53;10.38;;;3.60;;
66987;SDS011;53908;51.464;-2.588;2022-07-22T11:32:20;7.50;;;4.35;;
66987;SDS011;53908;51.464;-2.588;2022-07-22T11:34:47;13.07;;;3.95;;
66987;SDS011;53908;51.464;-2.588;2022-07-22T11:37:13;11.52;;;3.53;;
66987;SDS011;53908;51.464;-2.588;2022-07-22T11:39:40;9.60;;;3.90;;
66987;SDS011;53908;51.464;-2.588;2022-07-22T11:42:06;13.02;;;4.00;;
66987;SDS011;53908;51.464;-2.588;2022-07-22T11:44:33;11.93;;;4.10;;
66987;SDS011;53908;51.464;-2.588;2022-07-22T11:47:00;12.43;;;4.13;;
66987;SDS011;53908;51.464;-2.588;2022-07-22T11:49:26;11.02;;;4.97;;
66987;SDS011;53908;51.464;-2.588;2022-07-22T11:51:53;11.30;;;4.60;;
66987;SDS011;53908;51.464;-2.588;2022-07-22T11:54:19;16.38;;;4.88;;
66987;SDS011;53908;51.464;-2.588;2022-07-22T11:56:45;15.52;;;6.00;;
66987;SDS011;53908;51.464;-2.588;2022-07-22T11:59:16;16.58;;;5.80;;
66987;SDS011;53908;51.464;-2.588;2022-07-22T12:01:43;19.67;;;6.45;;
66987;SDS011;53908;51.464;-2.588;2022-07-22T12:04:11;20.33;;;6.40;;
66987;SDS011;53908;51.464;-2.588;2022-07-22T12:06:44;20.95;;;7.38;;
66987;SDS011;53908;51.464;-2.588;2022-07-22T12:09:14;15.73;;;6.68;;
66987;SDS011;53908;51.464;-2.588;2022-07-22T12:11:44;17.77;;;6.50;;
66987;SDS011;53908;51.464;-2.588;2022-07-22T12:14:13;13.90;;;5.82;;
66987;SDS011;53908;51.464;-2.588;2022-07-22T12:19:32;12.40;;;5.85;;
66987;SDS011;53908;51.464;-2.588;2022-07-22T12:22:06;33.55;;;7.72;;
66987;SDS011;53908;51.464;-2.588;2022-07-22T12:27:04;13.15;;;6.50;;
66987;SDS011;53908;51.464;-2.588;2022-07-22T12:32:06;18.02;;;7.00;;
66987;SDS011;53908;51.464;-2.588;2022-07-22T12:36:58;14.85;;;6.63;;
66987;SDS011;53908;51.464;-2.588;2022-07-22T12:39:25;14.57;;;6.22;;
66987;SDS011;53908;51.464;-2.588;2022-07-22T12:41:51;16.13;;;6.38;;
66987;SDS011;53908;51.464;-2.588;2022-07-22T12:44:22;16.48;;;6.72;;
66987;SDS011;53908;51.464;-2.588;2022-07-22T12:46:52;11.02;;;6.25;;
66987;SDS011;53908;51.464;-2.588;2022-07-22T12:49:19;11.90;;;6.28;;
66987;SDS011;53908;51.464;-2.588;2022-07-22T12:52:10;15.35;;;6.70;;
66987;SDS011;53908;51.464;-2.588;2022-07-22T12:54:34;12.13;;;6.25;;
66987;SDS011;53908;51.464;-2.588;2022-07-22T12:57:00;17.88;;;7.00;;
66987;SDS011;53908;51.464;-2.588;2022-07-22T12:59:26;17.15;;;7.30;;
66987;SDS011;53908;51.464;-2.588;2022-07-22T13:01:51;18.52;;;7.32;;
66987;SDS011;53908;51.464;-2.588;2022-07-22T13:04:16;14.60;;;6.93;;
66987;SDS011;53908;51.464;-2.588;2022-07-22T13:06:42;14.48;;;7.10;;
66987;SDS011;53908;51.464;-2.588;2022-07-22T13:09:07;15.88;;;7.22;;
66987;SDS011;53908;51.464;-2.588;2022-07-22T13:11:33;17.45;;;6.88;;
66987;SDS011;53908;51.464;-2.588;2022-07-22T13:14:04;13.65;;;7.32;;
66987;SDS011;53908;51.464;-2.588;2022-07-22T13:16:31;12.98;;;6.80;;
66987;SDS011;53908;51.464;-2.588;2022-07-22T13:18:58;14.60;;;7.22;;
66987;SDS011;53908;51.464;-2.588;2022-07-22T13:21:23;15.25;;;7.25;;
66987;SDS011;53908;51.464;-2.588;2022-07-22T13:23:49;12.05;;;7.13;;
66987;SDS011;53908;51.464;-2.588;2022-07-22T13:26:14;13.75;;;7.45;;
66987;SDS011;53908;51.464;-2.588;2022-07-22T13:28:40;13.30;;;7.95;;
66987;SDS011;53908;51.464;-2.588;2022-07-22T13:31:05;13.93;;;7.63;;
66987;SDS011;53908;51.464;-2.588;2022-07-22T13:33:31;14.57;;;7.63;;
66987;SDS011;53908;51.464;-2.588;2022-07-22T13:35:56;10.50;;;7.25;;
66987;SDS011;53908;51.464;-2.588;2022-07-22T13:38:21;16.35;;;7.38;;
66987;SDS011;53908;51.464;-2.588;2022-07-22T13:40:47;13.57;;;8.60;;
66987;SDS011;53908;51.464;-2.588;2022-07-22T13:43:19;18.63;;;7.55;;
66987;SDS011;53908;51.464;-2.588;2022-07-22T13:45:45;16.42;;;7.88;;
66987;SDS011;53908;51.464;-2.588;2022-07-22T13:48:10;12.60;;;7.68;;
66987;SDS011;53908;51.464;-2.588;2022-07-22T13:50:36;15.57;;;7.32;;
66987;SDS011;53908;51.464;-2.588;2022-07-22T13:53:01;18.55;;;7.25;;
66987;SDS011;53908;51.464;-2.588;2022-07-22T13:55:27;12.05;;;7.28;;
66987;SDS011;53908;51.464;-2.588;2022-07-22T13:57:54;36.47;;;7.78;;
66987;SDS011;53908;51.464;-2.588;2022-07-22T14:00:22;11.18;;;7.13;;
66987;SDS011;53908;51.464;-2.588;2022-07-22T14:02:48;15.35;;;7.22;;
66987;SDS011;53908;51.464;-2.588;2022-07-22T14:05:13;10.27;;;6.35;;
66987;SDS011;53908;51.464;-2.588;2022-07-22T14:07:40;10.88;;;5.90;;
66987;SDS011;53908;51.464;-2.588;2022-07-22T14:10:06;12.65;;;5.65;;
66987;SDS011;53908;51.464;-2.588;2022-07-22T14:12:31;9.48;;;5.68;;
66987;SDS011;53908;51.464;-2.588;2022-07-22T14:14:57;8.95;;;5.53;;
66987;SDS011;53908;51.464;-2.588;2022-07-22T14:17:22;7.78;;;5.10;;
66987;SDS011;53908;51.464;-2.588;2022-07-22T14:19:48;9.40;;;6.07;;
66987;SDS011;53908;51.464;-2.588;2022-07-22T14:22:13;13.50;;;5.72;;
66987;SDS011;53908;51.464;-2.588;2022-07-22T14:24:39;10.55;;;5.55;;
66987;SDS011;53908;51.464;-2.588;2022-07-22T14:27:04;9.15;;;5.85;;
66987;SDS011;53908;51.464;-2.588;2022-07-22T14:29:30;10.07;;;5.70;;
66987;SDS011;53908;51.464;-2.588;2022-07-22T14:31:55;11.82;;;5.85;;
66987;SDS011;53908;51.464;-2.588;2022-07-22T14:34:21;9.30;;;5.35;;
66987;SDS011;53908;51.464;-2.588;2022-07-22T14:36:46;18.38;;;7.07;;
66987;SDS011;53908;51.464;-2.588;2022-07-22T14:39:12;31.05;;;7.75;;
66987;SDS011;53908;51.464;-2.588;2022-07-22T14:41:37;28.70;;;8.05;;
66987;SDS011;53908;51.464;-2.588;2022-07-22T14:44:03;29.33;;;7.38;;
66987;SDS011;53908;51.464;-2.588;2022-07-22T14:46:29;13.50;;;5.95;;
66987;SDS011;53908;51.464;-2.588;2022-07-22T14:48:54;11.27;;;5.82;;
66987;SDS011;53908;51.464;-2.588;2022-07-22T14:51:20;14.00;;;6.15;;
66987;SDS011;53908;51.464;-2.588;2022-07-22T14:53:46;9.98;;;6.05;;
66987;SDS011;53908;51.464;-2.588;2022-07-22T14:56:12;10.38;;;5.88;;
66987;SDS011;53908;51.464;-2.588;2022-07-22T14:58:38;9.98;;;5.70;;
66987;SDS011;53908;51.464;-2.588;2022-07-22T15:01:03;8.45;;;5.43;;
66987;SDS011;53908;51.464;-2.588;2022-07-22T15:03:29;11.68;;;6.18;;
66987;SDS011;53908;51.464;-2.588;2022-07-22T15:05:54;10.43;;;6.13;;